createdAt,value
2022-10-29T00:02:51.709Z,11.84
2022-10-29T00:11:18.494Z,11.74
2022-10-29T00:19:41.256Z,11.76
2022-10-29T00:28:04.057Z,11.81
2022-10-29T00:36:29.159Z,11.80
2022-10-29T00:44:51.955Z,11.93
2022-10-29T00:53:19.416Z,12.05
2022-10-29T01:01:44.190Z,12.00
2022-10-29T01:10:07.793Z,12.06
2022-10-29T01:18:41.670Z,12.04
2022-10-29T01:27:15.720Z,11.92
2022-10-29T01:36:03.795Z,11.88
2022-10-29T01:44:33.841Z,11.81
2022-10-29T01:52:57.821Z,11.69
2022-10-29T02:01:47.798Z,11.56
2022-10-29T02:10:24.030Z,11.40
2022-10-29T02:18:49.210Z,11.23
2022-10-29T02:27:12.181Z,11.17
2022-10-29T02:35:34.975Z,11.11
2022-10-29T02:43:59.386Z,10.99
2022-10-29T02:52:22.340Z,10.93
2022-10-29T03:00:45.108Z,10.87
2022-10-29T03:09:07.882Z,10.74
2022-10-29T03:17:30.680Z,10.68
2022-10-29T03:25:56.044Z,10.63
2022-10-29T03:34:19.135Z,10.59
2022-10-29T03:42:41.851Z,10.66
2022-10-29T03:51:06.764Z,10.70
2022-10-29T03:59:29.565Z,10.67
2022-10-29T04:07:52.275Z,10.78
2022-10-29T04:16:15.046Z,10.90
2022-10-29T04:33:21.195Z,11.01
2022-10-29T04:41:43.977Z,11.09
2022-10-29T04:50:07.071Z,11.21
2022-10-29T04:58:29.847Z,11.25
2022-10-29T05:06:52.641Z,11.33
2022-10-29T05:15:15.426Z,11.29
2022-10-29T05:23:38.144Z,11.20
2022-10-29T05:32:01.142Z,11.22
2022-10-29T05:40:24.481Z,11.33
2022-10-29T05:48:47.255Z,11.41
2022-10-29T05:57:10.113Z,11.55
2022-10-29T06:05:33.413Z,11.60
2022-10-29T06:13:56.576Z,11.65
2022-10-29T06:22:19.468Z,11.82
2022-10-29T06:30:48.258Z,11.97
2022-10-29T06:39:11.090Z,11.99
2022-10-29T06:47:43.955Z,12.09
2022-10-29T06:56:07.014Z,12.17
2022-10-29T07:04:29.861Z,12.31
2022-10-29T07:12:52.808Z,12.60
2022-10-29T07:21:15.575Z,12.71
2022-10-29T07:29:40.241Z,12.78
2022-10-29T07:38:07.122Z,13.14
2022-10-29T07:46:33.199Z,13.66
2022-10-29T07:54:56.125Z,14.02
2022-10-29T08:03:19.075Z,14.19
2022-10-29T08:11:42.285Z,14.45
2022-10-29T08:20:05.603Z,14.75
2022-10-29T08:28:29.384Z,15.13
2022-10-29T08:36:54.580Z,15.39
2022-10-29T08:45:45.356Z,15.72
2022-10-29T08:54:30.165Z,16.10
2022-10-29T09:02:58.199Z,16.51
2022-10-29T09:11:27.038Z,16.65
2022-10-29T09:20:18.195Z,16.69
2022-10-29T09:28:53.304Z,17.00
2022-10-29T09:37:17.416Z,17.51
2022-10-29T09:46:07.644Z,17.65
2022-10-29T09:54:31.866Z,17.69
2022-10-29T10:03:03.424Z,17.59
2022-10-29T10:11:32.607Z,17.85
2022-10-29T10:19:55.484Z,18.27
2022-10-29T10:28:20.001Z,18.41
2022-10-29T10:36:47.683Z,18.77
2022-10-29T10:45:24.351Z,18.87
2022-10-29T10:53:47.457Z,19.06
2022-10-29T11:02:30.885Z,19.37
2022-10-29T11:10:59.200Z,22.57
2022-10-29T11:19:38.761Z,26.94
2022-10-29T11:28:16.154Z,27.38
2022-10-29T11:36:51.293Z,22.90
2022-10-29T11:45:38.322Z,20.40
2022-10-29T11:54:22.973Z,20.00
2022-10-29T12:03:07.967Z,19.32
2022-10-29T12:11:44.577Z,19.48
2022-10-29T12:20:38.590Z,20.27
2022-10-29T12:29:27.583Z,19.99
2022-10-29T12:38:12.753Z,20.04
2022-10-29T12:46:43.980Z,19.34
2022-10-29T12:55:10.628Z,18.59
2022-10-29T13:03:56.463Z,18.42
2022-10-29T13:13:00.611Z,18.96
2022-10-29T13:21:57.816Z,19.24
2022-10-29T13:30:27.251Z,18.75
2022-10-29T13:39:04.485Z,18.53
2022-10-29T13:47:30.326Z,18.75
2022-10-29T13:55:53.513Z,18.69
2022-10-29T14:04:31.273Z,18.41
2022-10-29T14:13:00.373Z,17.96
2022-10-29T14:21:36.922Z,17.67
2022-10-29T14:30:14.381Z,17.39
2022-10-29T14:39:00.100Z,17.21
2022-10-29T14:47:28.963Z,16.83
2022-10-29T14:55:55.478Z,16.47
2022-10-29T15:04:29.390Z,16.31
2022-10-29T15:12:52.759Z,16.11
2022-10-29T15:21:31.867Z,15.91
2022-10-29T15:29:55.431Z,15.75
2022-10-29T15:38:30.653Z,15.52
2022-10-29T15:46:59.074Z,15.25
2022-10-29T15:55:27.106Z,15.11
2022-10-29T16:03:50.190Z,14.93
2022-10-29T16:12:13.201Z,14.75
2022-10-29T16:20:36.781Z,14.63
2022-10-29T16:28:59.561Z,14.56
2022-10-29T16:37:22.439Z,14.52
2022-10-29T16:45:47.158Z,14.55
2022-10-29T16:54:10.419Z,14.47
2022-10-29T17:02:33.317Z,14.43
2022-10-29T17:10:58.786Z,14.34
2022-10-29T17:19:21.882Z,14.25
2022-10-29T17:27:44.687Z,14.08
2022-10-29T17:36:11.760Z,13.95
2022-10-29T17:44:36.290Z,13.79
2022-10-29T17:52:59.119Z,13.70
2022-10-29T18:01:22.062Z,13.56
2022-10-29T18:09:44.862Z,13.49
2022-10-29T18:18:07.707Z,13.45
2022-10-29T18:26:37.092Z,13.51
2022-10-29T18:35:00.009Z,13.49
2022-10-29T18:43:24.302Z,13.42
2022-10-29T18:51:47.290Z,13.42
2022-10-29T19:00:10.803Z,13.43
2022-10-29T19:08:41.950Z,13.38
2022-10-29T19:17:04.932Z,13.38
2022-10-29T19:25:28.254Z,13.34
2022-10-29T19:33:53.048Z,13.22
2022-10-29T19:42:16.600Z,13.11
2022-10-29T19:50:39.407Z,12.94
2022-10-29T19:59:04.248Z,12.87
2022-10-29T20:07:27.062Z,12.85
2022-10-29T20:15:50.735Z,12.82
2022-10-29T20:24:13.581Z,12.89
2022-10-29T20:32:36.447Z,12.94
2022-10-29T20:40:59.260Z,12.91
2022-10-29T20:49:21.988Z,12.87
2022-10-29T20:57:44.782Z,12.80
2022-10-29T21:06:15.530Z,12.71
2022-10-29T21:14:39.568Z,12.68
2022-10-29T21:23:02.310Z,12.63
2022-10-29T21:31:25.381Z,12.49
2022-10-29T21:39:48.265Z,12.32
2022-10-29T21:48:12.109Z,12.14
2022-10-29T21:56:34.925Z,11.99
2022-10-29T22:04:57.663Z,11.96
2022-10-29T22:13:20.452Z,12.06
2022-10-29T22:21:43.209Z,12.10
2022-10-29T22:30:06.383Z,12.14
2022-10-29T22:38:29.136Z,12.22
2022-10-29T22:46:51.915Z,12.19
2022-10-29T22:55:15.893Z,12.12
2022-10-29T23:03:40.222Z,12.13
2022-10-29T23:12:03.049Z,12.08
2022-10-29T23:20:25.810Z,12.13
2022-10-29T23:28:49.259Z,12.24
2022-10-29T23:37:12.138Z,12.27
2022-10-29T23:45:34.920Z,12.27
2022-10-29T23:53:57.911Z,12.25
